Time;durP1;ratioP1;P1;durP2;ratioP2;P2;SDS_P1;SDS_P2;PMS_P1;PMS_P2;Temp;Humidity;BMP_temperature;BMP_pressure;BME280_temperature;BME280_humidity;BME280_pressure;Samples;Min_cycle;Max_cycle;Signal;HPM_P1;HPM_P2
2022/10/24 00:02:30;;;;;;;26.80;5.93;;;;;;;;;;6307929;28;20820;-78
2022/10/24 00:05:32;;;;;;;47.78;7.20;;;;;;;;;;6306362;28;20052;-79
2022/10/24 00:08:34;;;;;;;32.10;5.88;;;;;;;;;;6296992;28;20072;-79
2022/10/24 00:11:37;;;;;;;28.92;4.75;;;;;;;;;;6317462;27;20058;-78
2022/10/24 00:14:39;;;;;;;18.40;4.68;;;;;;;;;;6299096;28;20043;-79
2022/10/24 00:17:40;;;;;;;23.38;4.35;;;;;;;;;;6311990;28;20051;-79
2022/10/24 00:20:42;;;;;;;25.88;4.95;;;;;;;;;;6317607;27;20043;-80
2022/10/24 00:23:49;;;;;;;22.38;4.65;;;;;;;;;;6285591;27;20074;-79
2022/10/24 00:26:51;;;;;;;40.60;8.02;;;;;;;;;;6303351;28;20048;-79
2022/10/24 00:29:52;;;;;;;33.45;5.40;;;;;;;;;;6299764;28;20051;-79
2022/10/24 00:32:55;;;;;;;43.22;6.03;;;;;;;;;;6300636;28;20525;-79
2022/10/24 00:35:56;;;;;;;39.13;5.22;;;;;;;;;;6301328;28;20052;-79
2022/10/24 00:38:58;;;;;;;9.65;4.45;;;;;;;;;;6304402;28;20042;-78
2022/10/24 00:42:00;;;;;;;37.47;5.85;;;;;;;;;;6303949;28;20063;-77
2022/10/24 00:45:38;;;;;;;16.23;4.75;;;;;;;;;;6295020;27;20048;-77
2022/10/24 00:48:47;;;;;;;10.15;4.03;;;;;;;;;;6327905;27;20533;-78
2022/10/24 00:51:52;;;;;;;24.40;4.63;;;;;;;;;;6307927;28;20164;-79
2022/10/24 00:54:57;;;;;;;9.52;3.67;;;;;;;;;;6324318;27;20170;-78
2022/10/24 00:58:00;;;;;;;56.72;6.82;;;;;;;;;;6323311;28;20133;-77
2022/10/24 01:01:03;;;;;;;52.30;6.45;;;;;;;;;;6318961;28;20067;-79
2022/10/24 01:04:06;;;;;;;61.83;8.25;;;;;;;;;;6303536;27;20807;-79
2022/10/24 01:07:46;;;;;;;16.98;6.57;;;;;;;;;;6316943;27;20455;-77
2022/10/24 01:11:05;;;;;;;61.92;8.57;;;;;;;;;;6318847;27;20431;-78
2022/10/24 01:14:21;;;;;;;49.92;8.45;;;;;;;;;;6316832;27;20055;-79
2022/10/24 01:17:41;;;;;;;28.65;5.50;;;;;;;;;;6297943;27;20060;-77
2022/10/24 01:21:07;;;;;;;27.73;5.85;;;;;;;;;;6310289;28;20040;-79
2022/10/24 01:24:35;;;;;;;48.50;6.03;;;;;;;;;;6322158;28;20051;-79
2022/10/24 01:27:52;;;;;;;43.90;5.60;;;;;;;;;;6300753;27;20062;-79
2022/10/24 01:31:16;;;;;;;42.47;5.97;;;;;;;;;;6320990;28;20047;-79
2022/10/24 01:34:32;;;;;;;15.63;4.32;;;;;;;;;;6299801;27;20046;-79
2022/10/24 01:37:46;;;;;;;68.20;8.10;;;;;;;;;;6314192;27;20054;-78
2022/10/24 01:40:53;;;;;;;34.22;5.25;;;;;;;;;;6321614;27;20054;-77
2022/10/24 01:44:05;;;;;;;44.40;6.40;;;;;;;;;;6304038;28;20524;-79
2022/10/24 01:47:21;;;;;;;73.85;7.47;;;;;;;;;;6325528;27;20055;-78
2022/10/24 01:50:25;;;;;;;37.88;5.53;;;;;;;;;;6301943;28;20052;-78
2022/10/24 01:53:28;;;;;;;14.13;4.78;;;;;;;;;;6319983;27;20048;-79
2022/10/24 01:56:30;;;;;;;50.25;6.00;;;;;;;;;;6322489;27;20056;-78
2022/10/24 01:59:32;;;;;;;19.05;4.28;;;;;;;;;;6301761;27;20047;-79
2022/10/24 02:02:40;;;;;;;12.30;3.92;;;;;;;;;;6292608;27;20032;-79
2022/10/24 02:05:48;;;;;;;22.58;4.18;;;;;;;;;;6303815;28;20057;-79
2022/10/24 02:08:54;;;;;;;33.47;6.00;;;;;;;;;;6288863;27;20047;-77
2022/10/24 02:11:58;;;;;;;15.82;4.78;;;;;;;;;;6323079;27;20692;-78
2022/10/24 02:15:09;;;;;;;30.60;5.43;;;;;;;;;;6318853;28;20067;-77
2022/10/24 02:18:11;;;;;;;13.70;3.78;;;;;;;;;;6317390;28;20040;-79
2022/10/24 02:21:28;;;;;;;8.23;3.00;;;;;;;;;;6289878;27;20044;-78
2022/10/24 02:24:36;;;;;;;10.57;3.83;;;;;;;;;;6319549;27;20051;-79
2022/10/24 02:27:48;;;;;;;10.45;3.55;;;;;;;;;;6297239;28;20821;-78
2022/10/24 02:30:57;;;;;;;26.42;5.75;;;;;;;;;;6322638;27;20052;-78
2022/10/24 02:34:00;;;;;;;23.65;5.45;;;;;;;;;;6319389;27;20052;-77
2022/10/24 02:37:05;;;;;;;23.17;6.00;;;;;;;;;;6304714;27;20071;-79
2022/10/24 02:40:09;;;;;;;26.95;4.55;;;;;;;;;;6335822;27;20052;-78
2022/10/24 02:43:12;;;;;;;13.10;4.38;;;;;;;;;;6317293;27;20040;-78
2022/10/24 02:46:17;;;;;;;16.67;3.92;;;;;;;;;;6290150;28;20456;-78
2022/10/24 02:49:19;;;;;;;46.33;6.90;;;;;;;;;;6320117;27;20046;-78
2022/10/24 02:52:22;;;;;;;18.42;4.63;;;;;;;;;;6319687;27;20045;-78
2022/10/24 02:55:24;;;;;;;15.77;4.82;;;;;;;;;;6315792;27;20055;-78
2022/10/24 02:58:26;;;;;;;28.60;5.50;;;;;;;;;;6285254;27;20052;-79
2022/10/24 03:01:28;;;;;;;57.15;7.28;;;;;;;;;;6320977;27;20178;-79
2022/10/24 03:04:29;;;;;;;37.47;6.00;;;;;;;;;;6279457;28;20043;-79
2022/10/24 03:07:31;;;;;;;15.43;4.47;;;;;;;;;;6317641;27;20129;-78
2022/10/24 03:10:33;;;;;;;13.55;4.45;;;;;;;;;;6314710;27;20072;-78
2022/10/24 03:13:34;;;;;;;38.63;5.88;;;;;;;;;;6289235;28;20180;-79
2022/10/24 03:16:36;;;;;;;25.08;5.38;;;;;;;;;;6297779;28;20128;-78
2022/10/24 03:19:38;;;;;;;17.38;3.83;;;;;;;;;;6317254;27;20047;-80
2022/10/24 03:22:39;;;;;;;21.10;3.90;;;;;;;;;;6317008;28;20051;-78
2022/10/24 03:25:41;;;;;;;12.40;3.28;;;;;;;;;;6317099;27;20044;-78
2022/10/24 03:28:43;;;;;;;13.48;3.67;;;;;;;;;;6320739;28;20035;-79
2022/10/24 03:31:45;;;;;;;10.48;3.45;;;;;;;;;;6318567;28;20044;-79
2022/10/24 03:34:46;;;;;;;4.95;2.70;;;;;;;;;;6279384;27;20601;-79
2022/10/24 03:37:48;;;;;;;6.07;3.50;;;;;;;;;;6298665;28;20051;-78
2022/10/24 03:40:50;;;;;;;11.95;3.60;;;;;;;;;;6322555;27;20123;-78
2022/10/24 03:43:52;;;;;;;6.97;4.10;;;;;;;;;;6303775;27;20059;-79
2022/10/24 03:46:53;;;;;;;46.78;6.07;;;;;;;;;;6301491;28;20039;-78
2022/10/24 03:49:55;;;;;;;31.15;5.25;;;;;;;;;;6283934;28;20050;-79
2022/10/24 03:52:57;;;;;;;25.48;5.13;;;;;;;;;;6321849;28;20097;-78
2022/10/24 03:55:59;;;;;;;25.17;4.68;;;;;;;;;;6297699;28;20047;-78
2022/10/24 03:59:01;;;;;;;16.13;3.80;;;;;;;;;;6323127;28;20117;-78
2022/10/24 04:02:04;;;;;;;16.98;3.70;;;;;;;;;;6320238;28;20055;-79
2022/10/24 04:05:07;;;;;;;13.73;3.70;;;;;;;;;;6319716;28;20130;-78
2022/10/24 04:08:09;;;;;;;58.17;6.53;;;;;;;;;;6320048;28;20085;-78
2022/10/24 04:11:11;;;;;;;7.05;3.92;;;;;;;;;;6320538;27;20040;-79
2022/10/24 04:14:13;;;;;;;7.65;3.28;;;;;;;;;;6309700;28;20513;-78
2022/10/24 04:17:15;;;;;;;8.82;3.83;;;;;;;;;;6304666;27;20509;-78
2022/10/24 04:20:21;;;;;;;18.70;4.63;;;;;;;;;;6305956;28;20518;-78
2022/10/24 04:23:22;;;;;;;14.65;3.72;;;;;;;;;;6308890;27;20104;-78
2022/10/24 04:26:24;;;;;;;4.72;3.17;;;;;;;;;;6298115;28;20554;-79
2022/10/24 04:29:26;;;;;;;6.07;2.90;;;;;;;;;;6322112;28;20530;-78
2022/10/24 04:32:28;;;;;;;7.90;3.22;;;;;;;;;;6318646;28;20453;-79
2022/10/24 04:35:29;;;;;;;8.02;3.83;;;;;;;;;;6325532;27;20123;-78
2022/10/24 04:38:31;;;;;;;9.25;4.05;;;;;;;;;;6320602;27;20054;-79
2022/10/24 04:41:34;;;;;;;9.77;3.80;;;;;;;;;;6308794;27;20058;-78
2022/10/24 04:44:35;;;;;;;10.70;4.40;;;;;;;;;;6323255;27;20048;-77
2022/10/24 04:47:37;;;;;;;10.07;2.95;;;;;;;;;;6323368;27;20871;-79
2022/10/24 04:50:41;;;;;;;3.85;2.85;;;;;;;;;;6319164;27;20043;-77
2022/10/24 04:53:46;;;;;;;16.95;4.50;;;;;;;;;;6327590;27;20059;-79
2022/10/24 04:56:47;;;;;;;8.25;3.83;;;;;;;;;;6325148;27;20051;-79
2022/10/24 04:59:49;;;;;;;7.80;3.75;;;;;;;;;;6321642;27;20051;-79
2022/10/24 05:02:51;;;;;;;8.25;4.10;;;;;;;;;;6299236;27;20171;-78
2022/10/24 05:05:57;;;;;;;8.32;4.28;;;;;;;;;;6309837;27;20066;-78
2022/10/24 05:08:59;;;;;;;10.18;4.35;;;;;;;;;;6318545;27;20080;-79
2022/10/24 05:12:01;;;;;;;15.45;5.00;;;;;;;;;;6310026;27;20055;-79
2022/10/24 05:15:03;;;;;;;10.10;4.32;;;;;;;;;;6318333;27;20043;-78
2022/10/24 05:18:05;;;;;;;9.88;4.38;;;;;;;;;;6316424;28;22495;-79
2022/10/24 05:21:07;;;;;;;10.25;4.53;;;;;;;;;;6318337;27;20279;-79
2022/10/24 05:24:09;;;;;;;11.13;4.82;;;;;;;;;;6320644;27;20054;-79
2022/10/24 05:27:10;;;;;;;13.65;5.88;;;;;;;;;;6322626;27;20051;-79
2022/10/24 05:30:12;;;;;;;11.57;5.93;;;;;;;;;;6320492;27;20548;-77
2022/10/24 05:33:14;;;;;;;10.18;4.70;;;;;;;;;;6317899;27;20126;-79
2022/10/24 05:36:16;;;;;;;15.55;13.32;;;;;;;;;;6322860;27;20074;-79
2022/10/24 05:39:18;;;;;;;9.73;4.90;;;;;;;;;;6323031;27;20046;-79
2022/10/24 05:42:20;;;;;;;7.60;4.38;;;;;;;;;;6313832;28;21436;-79
2022/10/24 05:45:22;;;;;;;9.13;4.43;;;;;;;;;;6302728;27;20474;-77
2022/10/24 05:48:24;;;;;;;12.77;4.60;;;;;;;;;;6286654;27;20056;-78
2022/10/24 05:51:26;;;;;;;11.70;4.70;;;;;;;;;;6316098;27;20078;-77
2022/10/24 05:54:27;;;;;;;13.85;5.13;;;;;;;;;;6306422;28;20099;-79
2022/10/24 05:57:49;;;;;;;18.80;5.35;;;;;;;;;;6297521;28;20403;-77
2022/10/24 06:00:50;;;;;;;15.07;7.38;;;;;;;;;;6319480;27;20043;-78
2022/10/24 06:03:55;;;;;;;11.55;7.07;;;;;;;;;;6297857;28;20055;-78
2022/10/24 06:06:56;;;;;;;15.63;7.05;;;;;;;;;;6304418;27;20465;-78
2022/10/24 06:09:58;;;;;;;15.70;9.02;;;;;;;;;;6306117;28;20078;-78
2022/10/24 06:13:00;;;;;;;16.08;7.18;;;;;;;;;;6302391;27;20418;-78
2022/10/24 06:16:04;;;;;;;16.15;7.78;;;;;;;;;;6319164;27;20185;-79
2022/10/24 06:19:06;;;;;;;16.88;7.18;;;;;;;;;;6312697;28;20141;-78
2022/10/24 06:22:08;;;;;;;24.25;7.90;;;;;;;;;;6320156;27;20153;-79
2022/10/24 06:25:11;;;;;;;13.40;7.38;;;;;;;;;;6315201;27;20062;-78
2022/10/24 06:28:14;;;;;;;;;;;;;;;;;;6298392;28;20177;-79
2022/10/24 06:31:17;;;;;;;18.80;8.00;;;;;;;;;;6283846;28;19923;-78
2022/10/24 06:34:18;;;;;;;;;;;;;;;;;;6314485;27;20040;-78
2022/10/24 06:37:21;;;;;;;19.55;6.93;;;;;;;;;;6301434;27;19927;-78
2022/10/24 06:40:23;;;;;;;21.08;8.30;;;;;;;;;;6311889;27;20051;-77
2022/10/24 06:43:24;;;;;;;18.75;7.18;;;;;;;;;;6315788;27;20043;-78
2022/10/24 06:46:26;;;;;;;20.85;8.30;;;;;;;;;;6310823;27;20097;-78
2022/10/24 06:49:28;;;;;;;23.15;8.57;;;;;;;;;;6282879;28;20080;-78
2022/10/24 06:52:30;;;;;;;20.45;9.52;;;;;;;;;;6314481;27;20067;-78
2022/10/24 06:55:32;;;;;;;23.90;11.40;;;;;;;;;;6307931;27;20040;-78
2022/10/24 06:58:36;;;;;;;26.00;10.10;;;;;;;;;;6313693;27;20054;-78
2022/10/24 07:01:38;;;;;;;20.35;8.68;;;;;;;;;;6300472;28;20059;-80
2022/10/24 07:04:40;;;;;;;23.88;10.05;;;;;;;;;;6282509;27;20679;-78
2022/10/24 07:07:43;;;;;;;26.05;12.30;;;;;;;;;;6301583;27;20771;-80
2022/10/24 07:10:45;;;;;;;19.73;10.85;;;;;;;;;;6293729;27;20058;-81
2022/10/24 07:13:47;;;;;;;22.38;8.35;;;;;;;;;;6319608;27;20044;-80
2022/10/24 07:16:50;;;;;;;15.07;7.70;;;;;;;;;;6319715;27;20487;-80
2022/10/24 07:19:52;;;;;;;18.13;6.70;;;;;;;;;;6309341;28;20195;-81
2022/10/24 07:22:56;;;;;;;15.40;7.45;;;;;;;;;;6291133;28;20040;-81
2022/10/24 07:26:06;;;;;;;16.80;7.00;;;;;;;;;;6283943;28;20138;-80
2022/10/24 07:29:08;;;;;;;19.65;7.30;;;;;;;;;;6257991;28;20102;-77
2022/10/24 07:32:10;;;;;;;17.83;7.60;;;;;;;;;;6289965;28;20724;-77
2022/10/24 07:35:12;;;;;;;13.25;6.40;;;;;;;;;;6301117;28;20193;-77
2022/10/24 07:38:14;;;;;;;17.27;6.75;;;;;;;;;;6297714;28;20048;-78
2022/10/24 07:41:19;;;;;;;12.05;5.60;;;;;;;;;;6273347;28;20658;-77
2022/10/24 07:44:21;;;;;;;12.90;5.80;;;;;;;;;;6297081;28;20052;-78
2022/10/24 07:47:22;;;;;;;12.15;6.00;;;;;;;;;;6293935;28;20131;-77
2022/10/24 07:50:25;;;;;;;17.58;7.22;;;;;;;;;;6303730;28;20055;-77
2022/10/24 07:53:27;;;;;;;15.93;6.13;;;;;;;;;;6286082;28;20044;-77
2022/10/24 07:56:29;;;;;;;14.02;6.13;;;;;;;;;;6258895;28;20431;-77
2022/10/24 07:59:31;;;;;;;16.75;5.65;;;;;;;;;;6269015;28;20047;-78
2022/10/24 08:02:47;;;;;;;13.88;5.32;;;;;;;;;;6268454;28;20055;-78
2022/10/24 08:05:49;;;;;;;15.93;5.32;;;;;;;;;;6292629;28;20044;-77
2022/10/24 08:08:51;;;;;;;11.23;4.80;;;;;;;;;;6287838;28;20126;-77
2022/10/24 08:11:53;;;;;;;11.68;5.55;;;;;;;;;;6286011;28;20125;-78
2022/10/24 08:14:55;;;;;;;10.40;5.05;;;;;;;;;;6289414;28;20055;-77
2022/10/24 08:17:56;;;;;;;13.77;4.55;;;;;;;;;;6292848;28;20052;-77
2022/10/24 08:21:00;;;;;;;13.23;4.65;;;;;;;;;;6287173;28;20376;-77
2022/10/24 08:24:02;;;;;;;10.23;4.32;;;;;;;;;;6291093;28;20086;-79
2022/10/24 08:27:04;;;;;;;10.57;4.03;;;;;;;;;;6290290;28;20098;-78
2022/10/24 08:30:06;;;;;;;9.35;3.55;;;;;;;;;;6288386;28;20044;-77
2022/10/24 08:33:08;;;;;;;10.18;4.45;;;;;;;;;;6289007;28;20189;-77
2022/10/24 08:36:18;;;;;;;9.07;4.00;;;;;;;;;;6287938;28;20064;-78
2022/10/24 08:39:20;;;;;;;12.48;3.63;;;;;;;;;;6289893;28;20098;-77
2022/10/24 08:42:23;;;;;;;8.88;3.30;;;;;;;;;;6286207;28;20068;-78
2022/10/24 08:45:33;;;;;;;7.45;2.83;;;;;;;;;;6288444;28;20060;-78
2022/10/24 08:48:50;;;;;;;13.30;3.30;;;;;;;;;;6285103;28;20050;-77
2022/10/24 08:51:56;;;;;;;11.02;3.80;;;;;;;;;;6288644;28;20073;-78
2022/10/24 08:55:05;;;;;;;9.73;3.30;;;;;;;;;;6289115;28;20089;-77
2022/10/24 08:58:14;;;;;;;13.65;3.88;;;;;;;;;;6293497;28;20043;-78
2022/10/24 09:01:26;;;;;;;4.88;2.72;;;;;;;;;;6277037;28;20082;-77
2022/10/24 09:04:38;;;;;;;9.80;3.40;;;;;;;;;;6274166;28;20119;-77
2022/10/24 09:07:43;;;;;;;9.93;2.80;;;;;;;;;;6293969;28;20178;-78
2022/10/24 09:10:51;;;;;;;7.03;2.80;;;;;;;;;;6275736;28;20052;-78
2022/10/24 09:13:54;;;;;;;6.13;2.65;;;;;;;;;;6290071;28;20035;-77
2022/10/24 09:17:00;;;;;;;11.83;3.30;;;;;;;;;;6291399;28;20048;-78
2022/10/24 09:20:24;;;;;;;7.80;3.03;;;;;;;;;;6274266;28;20107;-78
2022/10/24 09:23:26;;;;;;;8.48;2.42;;;;;;;;;;6295186;28;23738;-78
2022/10/24 09:26:31;;;;;;;8.77;3.30;;;;;;;;;;6288535;28;20048;-78
2022/10/24 09:29:33;;;;;;;7.68;2.90;;;;;;;;;;6271581;28;20125;-78
2022/10/24 09:32:35;;;;;;;7.63;2.67;;;;;;;;;;6289519;28;20051;-78
2022/10/24 09:35:37;;;;;;;8.37;2.60;;;;;;;;;;6294712;28;20130;-77
2022/10/24 09:38:41;;;;;;;8.65;3.20;;;;;;;;;;6298125;28;20473;-78
2022/10/24 09:41:45;;;;;;;7.47;2.78;;;;;;;;;;6293024;28;20059;-78
2022/10/24 09:44:47;;;;;;;8.20;2.75;;;;;;;;;;6274196;28;20048;-78
2022/10/24 09:47:58;;;;;;;11.60;2.60;;;;;;;;;;6274735;28;20158;-78
2022/10/24 09:51:02;;;;;;;9.60;3.15;;;;;;;;;;6292931;28;20500;-78
2022/10/24 09:54:18;;;;;;;10.27;3.08;;;;;;;;;;6260520;28;20044;-77
2022/10/24 09:57:22;;;;;;;12.05;2.88;;;;;;;;;;6271143;28;20040;-78
2022/10/24 10:00:31;;;;;;;8.07;2.55;;;;;;;;;;6281499;28;20044;-78
2022/10/24 10:03:34;;;;;;;9.10;2.78;;;;;;;;;;6289323;28;20190;-78
2022/10/24 10:06:43;;;;;;;6.75;2.28;;;;;;;;;;6292778;28;20543;-78
2022/10/24 10:09:52;;;;;;;4.90;2.17;;;;;;;;;;6294174;28;20051;-77
2022/10/24 10:13:18;;;;;;;9.05;2.50;;;;;;;;;;6284231;28;20457;-78
2022/10/24 10:16:29;;;;;;;7.22;2.40;;;;;;;;;;6294634;28;20249;-77
2022/10/24 10:19:37;;;;;;;8.48;2.75;;;;;;;;;;6298354;28;20088;-78
2022/10/24 10:22:38;;;;;;;9.48;2.38;;;;;;;;;;6298721;28;20074;-78
2022/10/24 10:25:40;;;;;;;6.22;2.33;;;;;;;;;;6301011;28;20598;-77
2022/10/24 10:28:51;;;;;;;5.97;2.53;;;;;;;;;;6294171;28;20055;-77
2022/10/24 10:32:12;;;;;;;6.60;2.22;;;;;;;;;;6294536;28;20068;-79
2022/10/24 10:35:31;;;;;;;9.95;2.13;;;;;;;;;;6286859;28;20144;-79
2022/10/24 10:38:43;;;;;;;5.72;2.25;;;;;;;;;;6278310;28;20051;-79
2022/10/24 10:41:57;;;;;;;6.85;1.95;;;;;;;;;;6290380;28;20411;-79
2022/10/24 10:45:25;;;;;;;6.78;2.05;;;;;;;;;;6297147;28;20055;-79
2022/10/24 10:48:36;;;;;;;6.30;2.00;;;;;;;;;;6268870;28;20063;-79
2022/10/24 10:51:50;;;;;;;6.28;1.80;;;;;;;;;;6282510;28;20051;-79
2022/10/24 10:55:05;;;;;;;5.15;1.75;;;;;;;;;;6292900;28;20051;-79
2022/10/24 10:58:23;;;;;;;8.05;2.00;;;;;;;;;;6290155;28;20510;-77
2022/10/24 11:01:56;;;;;;;3.67;1.70;;;;;;;;;;6292106;28;20079;-78
2022/10/24 11:05:40;;;;;;;4.70;1.58;;;;;;;;;;6284532;28;20044;-80
2022/10/24 11:08:49;;;;;;;9.68;1.92;;;;;;;;;;6252662;28;20052;-78
2022/10/24 11:11:59;;;;;;;3.30;1.50;;;;;;;;;;6286737;28;20690;-78
2022/10/24 11:15:08;;;;;;;4.28;1.60;;;;;;;;;;6293408;28;20044;-79
2022/10/24 11:18:13;;;;;;;3.40;1.20;;;;;;;;;;6294061;28;22147;-80
2022/10/24 11:21:17;;;;;;;3.40;1.00;;;;;;;;;;6276276;28;20085;-80
2022/10/24 11:24:22;;;;;;;5.45;1.50;;;;;;;;;;6290818;28;20048;-79
2022/10/24 11:27:37;;;;;;;5.90;1.63;;;;;;;;;;6289442;28;20298;-78
2022/10/24 11:30:48;;;;;;;7.85;1.35;;;;;;;;;;6292831;28;20045;-80
2022/10/24 11:33:58;;;;;;;6.13;1.10;;;;;;;;;;6288672;28;20124;-80
2022/10/24 11:37:06;;;;;;;5.30;1.10;;;;;;;;;;6293065;28;20040;-79
2022/10/24 11:40:23;;;;;;;2.72;1.25;;;;;;;;;;6292571;28;20123;-79
2022/10/24 11:43:39;;;;;;;6.55;1.50;;;;;;;;;;6289409;28;21886;-78
2022/10/24 11:46:45;;;;;;;2.85;1.05;;;;;;;;;;6298014;28;20418;-80
2022/10/24 11:49:54;;;;;;;4.03;0.93;;;;;;;;;;6292476;28;20055;-79
2022/10/24 11:53:40;;;;;;;2.05;0.88;;;;;;;;;;6292692;28;20043;-80
2022/10/24 11:56:50;;;;;;;2.35;0.95;;;;;;;;;;6290860;28;20047;-78
2022/10/24 11:59:53;;;;;;;3.60;0.90;;;;;;;;;;6291845;28;20135;-79
2022/10/24 12:03:01;;;;;;;;;;;;;;;;;;6289764;28;20043;-79
2022/10/24 12:06:25;;;;;;;3.55;0.90;;;;;;;;;;6283444;28;20005;-78
2022/10/24 12:09:58;;;;;;;4.65;0.80;;;;;;;;;;6290961;28;20043;-78
2022/10/24 12:13:31;;;;;;;3.38;0.85;;;;;;;;;;6272210;28;20083;-78
2022/10/24 12:16:53;;;;;;;;;;;;;;;;;;6292417;28;20131;-78
2022/10/24 12:19:55;;;;;;;3.92;0.80;;;;;;;;;;6268114;28;19981;-79
2022/10/24 12:23:00;;;;;;;4.20;0.70;;;;;;;;;;6293768;28;20052;-78
2022/10/24 12:26:18;;;;;;;4.70;1.15;;;;;;;;;;6286479;28;20566;-79
2022/10/24 12:29:23;;;;;;;3.28;0.70;;;;;;;;;;6289533;28;20085;-78
2022/10/24 12:32:40;;;;;;;2.97;0.80;;;;;;;;;;6293349;28;20645;-79
2022/10/24 12:35:45;;;;;;;4.53;1.02;;;;;;;;;;6296603;28;20036;-80
2022/10/24 12:39:02;;;;;;;4.22;0.88;;;;;;;;;;6299033;28;20056;-79
2022/10/24 12:42:04;;;;;;;2.13;0.85;;;;;;;;;;6302940;28;20043;-80
2022/10/24 12:45:31;;;;;;;3.60;0.90;;;;;;;;;;6304717;28;20058;-80
2022/10/24 12:48:35;;;;;;;7.38;0.90;;;;;;;;;;6298176;28;20051;-78
2022/10/24 12:51:39;;;;;;;5.75;0.80;;;;;;;;;;6262336;28;20032;-79
2022/10/24 12:54:44;;;;;;;2.25;0.80;;;;;;;;;;6277781;28;20044;-79
2022/10/24 12:57:46;;;;;;;2.45;0.82;;;;;;;;;;6295278;28;20509;-78
2022/10/24 13:01:00;;;;;;;4.60;1.08;;;;;;;;;;6304370;28;20048;-79
2022/10/24 13:04:20;;;;;;;2.78;1.08;;;;;;;;;;6296920;28;20111;-80
2022/10/24 13:07:34;;;;;;;3.47;0.90;;;;;;;;;;6300571;28;20326;-80
2022/10/24 13:10:53;;;;;;;1.25;0.55;;;;;;;;;;6290173;28;20415;-78
2022/10/24 13:14:07;;;;;;;4.15;1.05;;;;;;;;;;6289594;28;20094;-77
2022/10/24 13:17:14;;;;;;;5.07;0.80;;;;;;;;;;6272701;28;20064;-78
2022/10/24 13:20:25;;;;;;;3.15;1.05;;;;;;;;;;6282512;28;20048;-79
2022/10/24 13:23:27;;;;;;;5.28;1.05;;;;;;;;;;6294380;28;20067;-79
2022/10/24 13:26:39;;;;;;;3.92;0.90;;;;;;;;;;6296049;28;20055;-79
2022/10/24 13:29:42;;;;;;;2.03;0.90;;;;;;;;;;6299321;28;20044;-81
2022/10/24 13:32:44;;;;;;;3.58;1.10;;;;;;;;;;6271359;28;20037;-81
2022/10/24 13:35:47;;;;;;;1.63;0.80;;;;;;;;;;6300607;28;20047;-81
2022/10/24 13:38:57;;;;;;;4.00;0.90;;;;;;;;;;6305807;28;20039;-80
2022/10/24 13:42:03;;;;;;;3.30;0.73;;;;;;;;;;6295808;28;20078;-78
2022/10/24 13:45:43;;;;;;;4.45;1.00;;;;;;;;;;6297490;28;20625;-78
2022/10/24 13:48:47;;;;;;;2.22;0.88;;;;;;;;;;6294335;28;20055;-79
2022/10/24 13:51:52;;;;;;;3.25;0.88;;;;;;;;;;6262397;28;20200;-79
2022/10/24 13:55:02;;;;;;;3.60;0.88;;;;;;;;;;6295028;28;20105;-79
2022/10/24 13:58:04;;;;;;;6.50;0.80;;;;;;;;;;6281161;28;20143;-80
2022/10/24 14:01:15;;;;;;;2.33;0.63;;;;;;;;;;6295097;28;20171;-79
2022/10/24 14:04:17;;;;;;;3.95;0.80;;;;;;;;;;6273001;28;20040;-78
2022/10/24 14:07:22;;;;;;;3.70;1.45;;;;;;;;;;6296107;28;20872;-80
2022/10/24 14:10:25;;;;;;;4.95;0.98;;;;;;;;;;6297734;28;20385;-80
2022/10/24 14:13:30;;;;;;;4.15;1.27;;;;;;;;;;6297540;28;20044;-79
2022/10/24 14:16:33;;;;;;;5.65;2.00;;;;;;;;;;6294756;28;20048;-79
2022/10/24 14:19:39;;;;;;;9.13;3.40;;;;;;;;;;6291479;28;20413;-79
2022/10/24 14:22:47;;;;;;;4.82;0.88;;;;;;;;;;6291382;28;20150;-79
2022/10/24 14:26:06;;;;;;;5.93;1.17;;;;;;;;;;6290334;28;20040;-80
2022/10/24 14:29:21;;;;;;;2.33;1.00;;;;;;;;;;6295272;28;20081;-79
2022/10/24 14:32:24;;;;;;;5.03;1.17;;;;;;;;;;6275809;28;20458;-79
2022/10/24 14:35:26;;;;;;;3.00;0.82;;;;;;;;;;6275581;28;20123;-80
2022/10/24 14:38:28;;;;;;;4.93;1.83;;;;;;;;;;6293734;28;20443;-80
2022/10/24 14:41:41;;;;;;;2.42;1.02;;;;;;;;;;6272006;28;20054;-80
2022/10/24 14:44:45;;;;;;;4.57;1.23;;;;;;;;;;6283311;28;20036;-80
2022/10/24 14:47:52;;;;;;;3.67;0.80;;;;;;;;;;6288700;28;20122;-80
2022/10/24 14:51:02;;;;;;;4.05;0.82;;;;;;;;;;6294258;28;20282;-80
2022/10/24 14:54:12;;;;;;;8.90;1.10;;;;;;;;;;6277496;28;20286;-79
2022/10/24 14:57:20;;;;;;;5.10;1.00;;;;;;;;;;6292419;28;20055;-79
2022/10/24 15:00:27;;;;;;;4.00;0.85;;;;;;;;;;6296952;28;20047;-80
2022/10/24 15:03:29;;;;;;;6.85;1.40;;;;;;;;;;6292821;28;20537;-79
2022/10/24 15:06:42;;;;;;;7.00;0.98;;;;;;;;;;6292760;28;20120;-78
2022/10/24 15:10:09;;;;;;;4.28;0.88;;;;;;;;;;6274372;28;20050;-79
2022/10/24 15:13:24;;;;;;;3.85;1.27;;;;;;;;;;6262926;28;20051;-78
2022/10/24 15:16:38;;;;;;;3.70;0.77;;;;;;;;;;6295659;28;20405;-79
2022/10/24 15:19:39;;;;;;;6.22;0.80;;;;;;;;;;6290792;28;20036;-80
2022/10/24 15:22:47;;;;;;;5.78;1.10;;;;;;;;;;6294149;28;20048;-78
2022/10/24 15:26:06;;;;;;;5.78;1.13;;;;;;;;;;6291051;28;20622;-79
2022/10/24 15:29:11;;;;;;;3.95;1.10;;;;;;;;;;6293831;28;20040;-78
2022/10/24 15:32:13;;;;;;;9.10;1.58;;;;;;;;;;6297786;28;20101;-80
2022/10/24 15:35:15;;;;;;;6.18;1.52;;;;;;;;;;6294897;28;20121;-80
2022/10/24 15:38:17;;;;;;;5.63;1.23;;;;;;;;;;6276196;28;20048;-79
2022/10/24 15:41:19;;;;;;;4.00;1.08;;;;;;;;;;6297188;28;20063;-79
2022/10/24 15:44:25;;;;;;;9.23;1.10;;;;;;;;;;6299630;28;20044;-80
2022/10/24 15:47:28;;;;;;;4.93;1.02;;;;;;;;;;6283991;28;20074;-79
2022/10/24 15:50:29;;;;;;;8.50;1.50;;;;;;;;;;6288192;28;20048;-80
2022/10/24 15:53:31;;;;;;;7.30;1.67;;;;;;;;;;6283344;28;20052;-79
2022/10/24 15:56:33;;;;;;;4.85;1.40;;;;;;;;;;6288374;28;20055;-79
2022/10/24 15:59:35;;;;;;;5.77;1.73;;;;;;;;;;6275828;28;20066;-80
2022/10/24 16:02:37;;;;;;;6.65;1.58;;;;;;;;;;6296734;28;20047;-78
2022/10/24 16:05:42;;;;;;;8.30;1.48;;;;;;;;;;6294962;28;20416;-79
2022/10/24 16:08:43;;;;;;;6.32;1.13;;;;;;;;;;6294104;28;20508;-79
2022/10/24 16:11:45;;;;;;;5.95;1.50;;;;;;;;;;6292572;28;20063;-79
2022/10/24 16:14:47;;;;;;;7.55;1.55;;;;;;;;;;6289058;28;20101;-79
2022/10/24 16:17:49;;;;;;;4.80;1.55;;;;;;;;;;6283055;28;20044;-79
2022/10/24 16:20:51;;;;;;;6.80;1.00;;;;;;;;;;6266549;28;22014;-81
2022/10/24 16:23:54;;;;;;;6.53;1.75;;;;;;;;;;6294428;28;20091;-81
2022/10/24 16:26:56;;;;;;;9.32;1.17;;;;;;;;;;6284086;28;20087;-80
2022/10/24 16:29:58;;;;;;;7.30;1.35;;;;;;;;;;6292550;28;20055;-80
2022/10/24 16:33:00;;;;;;;8.93;1.60;;;;;;;;;;6258961;28;20110;-79
2022/10/24 16:36:02;;;;;;;5.30;1.37;;;;;;;;;;6288551;28;20095;-81
2022/10/24 16:39:04;;;;;;;2.30;0.93;;;;;;;;;;6293541;28;20188;-81
2022/10/24 16:42:06;;;;;;;4.85;1.20;;;;;;;;;;6295717;28;20048;-79
2022/10/24 16:45:08;;;;;;;7.72;0.93;;;;;;;;;;6305968;28;20054;-79
2022/10/24 16:48:10;;;;;;;8.90;1.67;;;;;;;;;;6305075;28;20112;-78
2022/10/24 16:51:14;;;;;;;6.50;2.17;;;;;;;;;;6303312;28;20054;-78
2022/10/24 16:54:17;;;;;;;7.60;2.05;;;;;;;;;;6303256;28;20051;-79
2022/10/24 16:57:20;;;;;;;7.88;2.22;;;;;;;;;;6303647;28;20043;-78
2022/10/24 17:00:22;;;;;;;5.77;1.53;;;;;;;;;;6304746;28;20050;-79
2022/10/24 17:03:24;;;;;;;7.97;1.92;;;;;;;;;;6286625;28;20966;-79
2022/10/24 17:06:26;;;;;;;4.15;1.55;;;;;;;;;;6298271;28;21014;-79
2022/10/24 17:09:28;;;;;;;7.25;1.67;;;;;;;;;;6298768;28;20427;-78
2022/10/24 17:12:32;;;;;;;5.68;1.90;;;;;;;;;;6302932;28;20197;-79
2022/10/24 17:15:34;;;;;;;6.45;2.00;;;;;;;;;;6303033;28;20048;-80
2022/10/24 17:18:36;;;;;;;6.25;1.65;;;;;;;;;;6302238;28;20073;-81
2022/10/24 17:21:40;;;;;;;9.10;1.73;;;;;;;;;;6285440;28;20153;-80
2022/10/24 17:24:42;;;;;;;6.47;1.67;;;;;;;;;;6298188;28;20078;-79
2022/10/24 17:27:44;;;;;;;6.30;2.00;;;;;;;;;;6269554;28;20044;-80
2022/10/24 17:30:46;;;;;;;7.05;2.03;;;;;;;;;;6302614;28;20048;-80
2022/10/24 17:33:48;;;;;;;13.18;4.05;;;;;;;;;;6302750;28;20059;-80
2022/10/24 17:37:23;;;;;;;3.10;1.40;;;;;;;;;;6281549;28;20052;-79
2022/10/24 17:40:29;;;;;;;5.72;1.35;;;;;;;;;;6278779;28;20052;-80
2022/10/24 17:43:31;;;;;;;6.25;1.80;;;;;;;;;;6300420;28;20151;-83
2022/10/24 17:46:33;;;;;;;4.60;1.63;;;;;;;;;;6299213;28;20055;-79
2022/10/24 17:49:34;;;;;;;6.82;1.50;;;;;;;;;;6297945;28;20538;-80
2022/10/24 17:52:39;;;;;;;7.72;1.38;;;;;;;;;;6299958;28;20051;-79
2022/10/24 17:55:40;;;;;;;6.50;1.92;;;;;;;;;;6295225;28;20423;-81
2022/10/24 17:58:49;;;;;;;5.53;1.80;;;;;;;;;;6300990;28;20044;-78
2022/10/24 18:01:51;;;;;;;7.03;1.80;;;;;;;;;;6299591;28;20154;-79
2022/10/24 18:04:53;;;;;;;5.10;1.80;;;;;;;;;;6296105;28;20040;-80
2022/10/24 18:07:56;;;;;;;10.82;1.85;;;;;;;;;;6283345;28;20048;-81
2022/10/24 18:11:04;;;;;;;7.40;1.52;;;;;;;;;;6282662;28;20047;-78
2022/10/24 18:14:06;;;;;;;7.50;1.20;;;;;;;;;;6305764;28;20052;-78
2022/10/24 18:17:08;;;;;;;5.28;1.40;;;;;;;;;;6273810;28;20491;-79
2022/10/24 18:20:11;;;;;;;3.85;0.98;;;;;;;;;;6297865;28;20052;-78
2022/10/24 18:23:14;;;;;;;7.78;1.35;;;;;;;;;;6302662;28;20066;-79
2022/10/24 18:26:18;;;;;;;7.67;2.00;;;;;;;;;;6304212;28;20040;-79
2022/10/24 18:29:20;;;;;;;4.82;1.35;;;;;;;;;;6302563;28;20048;-79
2022/10/24 18:32:21;;;;;;;7.53;1.40;;;;;;;;;;6306022;28;20056;-79